Almont Township, Michigan
Current Conditions -  °F | °C
As of 1:54 PM on Friday 24 Oct 2014 (Local Time) from KD95 Reporting Station
Overcast Overcast  
Wind Chill: 57°   Ceiling: 4200
Heat Index: 57°   Visibility: 10mi
Dew Point: 43°   Wind: 7mph
Humidity: 60%   Direction: 230°SW
Pressure: 30.02"   Gusts: NA
Location:  42.9337°N, 83.0375°W
Report Text: KD95 241754Z AUTO 23006KT 10SM BKN042 OVC049 14/06 A3002 RMK AO2 T01390062
Loading
Personal Weather Stations






























Interactive Weather Map
Tropical Storm Tracking
New forecast layout! Learn more

10-Day Weather Forecast

Advertisements
Track Severe Weather on mobile